sensor_id;sensor_type;location;lat;lon;timestamp;P1;durP1;ratioP1;P2;durP2;ratioP2
41077;SDS011;26823;42.662;23.352;2022-07-29T00:00:18;10.18;;;9.20;;
41077;SDS011;26823;42.662;23.352;2022-07-29T00:02:44;10.48;;;9.48;;
41077;SDS011;26823;42.662;23.352;2022-07-29T00:05:09;9.00;;;8.13;;
41077;SDS011;26823;42.662;23.352;2022-07-29T00:07:38;9.68;;;8.68;;
41077;SDS011;26823;42.662;23.352;2022-07-29T00:10:04;9.95;;;8.38;;
41077;SDS011;26823;42.662;23.352;2022-07-29T00:12:29;9.95;;;8.85;;
41077;SDS011;26823;42.662;23.352;2022-07-29T00:14:55;9.13;;;8.23;;
41077;SDS011;26823;42.662;23.352;2022-07-29T00:17:22;9.23;;;8.32;;
41077;SDS011;26823;42.662;23.352;2022-07-29T00:19:48;8.77;;;7.97;;
41077;SDS011;26823;42.662;23.352;2022-07-29T00:22:13;9.15;;;8.10;;
41077;SDS011;26823;42.662;23.352;2022-07-29T00:24:39;10.20;;;9.07;;
41077;SDS011;26823;42.662;23.352;2022-07-29T00:27:07;9.73;;;8.00;;
41077;SDS011;26823;42.662;23.352;2022-07-29T00:29:33;10.10;;;8.02;;
41077;SDS011;26823;42.662;23.352;2022-07-29T00:31:58;9.25;;;8.18;;
41077;SDS011;26823;42.662;23.352;2022-07-29T00:34:23;10.57;;;8.65;;
41077;SDS011;26823;42.662;23.352;2022-07-29T00:37:07;9.60;;;7.88;;
41077;SDS011;26823;42.662;23.352;2022-07-29T00:39:32;9.07;;;8.18;;
41077;SDS011;26823;42.662;23.352;2022-07-29T00:41:58;9.30;;;8.40;;
41077;SDS011;26823;42.662;23.352;2022-07-29T00:44:23;9.02;;;8.13;;
41077;SDS011;26823;42.662;23.352;2022-07-29T00:46:49;10.50;;;8.73;;
41077;SDS011;26823;42.662;23.352;2022-07-29T00:49:14;9.00;;;8.15;;
41077;SDS011;26823;42.662;23.352;2022-07-29T00:51:40;14.18;;;8.27;;
41077;SDS011;26823;42.662;23.352;2022-07-29T00:54:05;9.13;;;8.20;;
41077;SDS011;26823;42.662;23.352;2022-07-29T00:56:32;9.10;;;8.25;;
41077;SDS011;26823;42.662;23.352;2022-07-29T00:58:59;10.38;;;8.48;;
41077;SDS011;26823;42.662;23.352;2022-07-29T01:01:25;10.75;;;8.95;;
41077;SDS011;26823;42.662;23.352;2022-07-29T01:03:51;10.25;;;8.95;;
41077;SDS011;26823;42.662;23.352;2022-07-29T01:06:17;10.32;;;8.85;;
41077;SDS011;26823;42.662;23.352;2022-07-29T01:08:44;9.82;;;8.52;;
41077;SDS011;26823;42.662;23.352;2022-07-29T01:11:10;8.88;;;7.97;;
41077;SDS011;26823;42.662;23.352;2022-07-29T01:13:37;9.07;;;8.18;;
41077;SDS011;26823;42.662;23.352;2022-07-29T01:16:04;8.82;;;7.93;;
41077;SDS011;26823;42.662;23.352;2022-07-29T01:18:37;9.85;;;8.38;;
41077;SDS011;26823;42.662;23.352;2022-07-29T01:31:56;11.38;;;10.20;;
41077;SDS011;26823;42.662;23.352;2022-07-29T01:34:23;12.10;;;10.82;;
41077;SDS011;26823;42.662;23.352;2022-07-29T01:36:59;12.05;;;10.85;;
41077;SDS011;26823;42.662;23.352;2022-07-29T01:39:46;12.38;;;11.13;;
41077;SDS011;26823;42.662;23.352;2022-07-29T01:42:15;12.98;;;11.73;;
41077;SDS011;26823;42.662;23.352;2022-07-29T01:47:56;17.95;;;12.90;;
41077;SDS011;26823;42.662;23.352;2022-07-29T01:50:30;15.90;;;12.38;;
41077;SDS011;26823;42.662;23.352;2022-07-29T01:53:00;12.82;;;11.63;;
41077;SDS011;26823;42.662;23.352;2022-07-29T01:55:35;13.10;;;11.80;;
41077;SDS011;26823;42.662;23.352;2022-07-29T01:58:04;13.32;;;11.02;;
41077;SDS011;26823;42.662;23.352;2022-07-29T02:00:31;13.82;;;12.45;;
41077;SDS011;26823;42.662;23.352;2022-07-29T02:02:58;13.90;;;11.43;;
41077;SDS011;26823;42.662;23.352;2022-07-29T02:05:27;13.50;;;11.45;;
41077;SDS011;26823;42.662;23.352;2022-07-29T02:07:55;15.73;;;12.10;;
41077;SDS011;26823;42.662;23.352;2022-07-29T02:10:25;13.20;;;11.88;;
41077;SDS011;26823;42.662;23.352;2022-07-29T02:12:54;13.02;;;11.73;;
41077;SDS011;26823;42.662;23.352;2022-07-29T02:15:22;13.77;;;12.38;;
41077;SDS011;26823;42.662;23.352;2022-07-29T02:17:51;12.55;;;11.10;;
41077;SDS011;26823;42.662;23.352;2022-07-29T02:20:22;13.50;;;10.95;;
41077;SDS011;26823;42.662;23.352;2022-07-29T02:22:48;13.70;;;11.55;;
41077;SDS011;26823;42.662;23.352;2022-07-29T02:25:16;11.40;;;10.35;;
41077;SDS011;26823;42.662;23.352;2022-07-29T02:27:43;11.68;;;10.57;;
41077;SDS011;26823;42.662;23.352;2022-07-29T02:30:09;10.98;;;9.93;;
41077;SDS011;26823;42.662;23.352;2022-07-29T02:32:37;11.57;;;10.38;;
41077;SDS011;26823;42.662;23.352;2022-07-29T02:35:05;10.68;;;9.60;;
41077;SDS011;26823;42.662;23.352;2022-07-29T02:37:32;12.70;;;10.98;;
41077;SDS011;26823;42.662;23.352;2022-07-29T02:40:00;13.73;;;11.50;;
41077;SDS011;26823;42.662;23.352;2022-07-29T02:42:26;13.60;;;10.20;;
41077;SDS011;26823;42.662;23.352;2022-07-29T02:44:53;12.48;;;10.48;;
41077;SDS011;26823;42.662;23.352;2022-07-29T02:50:21;10.65;;;9.55;;
41077;SDS011;26823;42.662;23.352;2022-07-29T02:53:02;8.70;;;7.80;;
41077;SDS011;26823;42.662;23.352;2022-07-29T02:55:37;11.10;;;8.57;;
41077;SDS011;26823;42.662;23.352;2022-07-29T03:00:36;12.15;;;8.20;;
41077;SDS011;26823;42.662;23.352;2022-07-29T03:03:06;9.75;;;7.72;;
41077;SDS011;26823;42.662;23.352;2022-07-29T03:05:34;11.55;;;7.45;;
41077;SDS011;26823;42.662;23.352;2022-07-29T03:08:01;7.90;;;7.20;;
41077;SDS011;26823;42.662;23.352;2022-07-29T03:10:28;9.23;;;7.10;;
41077;SDS011;26823;42.662;23.352;2022-07-29T03:12:55;7.90;;;7.07;;
41077;SDS011;26823;42.662;23.352;2022-07-29T03:15:22;8.82;;;7.45;;
41077;SDS011;26823;42.662;23.352;2022-07-29T03:17:49;8.43;;;7.05;;
41077;SDS011;26823;42.662;23.352;2022-07-29T03:20:15;11.45;;;7.35;;
41077;SDS011;26823;42.662;23.352;2022-07-29T03:22:43;9.45;;;7.72;;
41077;SDS011;26823;42.662;23.352;2022-07-29T03:25:12;7.50;;;6.90;;
41077;SDS011;26823;42.662;23.352;2022-07-29T03:27:38;8.18;;;7.22;;
41077;SDS011;26823;42.662;23.352;2022-07-29T03:30:04;8.38;;;7.57;;
41077;SDS011;26823;42.662;23.352;2022-07-29T03:32:31;12.20;;;8.65;;
41077;SDS011;26823;42.662;23.352;2022-07-29T03:34:56;10.90;;;8.07;;
41077;SDS011;26823;42.662;23.352;2022-07-29T03:37:21;9.15;;;8.00;;
41077;SDS011;26823;42.662;23.352;2022-07-29T03:39:47;11.35;;;10.25;;
41077;SDS011;26823;42.662;23.352;2022-07-29T03:42:15;12.38;;;10.30;;
41077;SDS011;26823;42.662;23.352;2022-07-29T03:44:44;10.45;;;9.25;;
41077;SDS011;26823;42.662;23.352;2022-07-29T03:47:13;10.93;;;9.80;;
41077;SDS011;26823;42.662;23.352;2022-07-29T03:49:39;11.80;;;8.80;;
41077;SDS011;26823;42.662;23.352;2022-07-29T03:52:06;11.02;;;9.43;;
41077;SDS011;26823;42.662;23.352;2022-07-29T03:54:32;11.90;;;9.18;;
41077;SDS011;26823;42.662;23.352;2022-07-29T03:56:59;10.77;;;9.73;;
41077;SDS011;26823;42.662;23.352;2022-07-29T03:59:26;13.95;;;12.48;;
41077;SDS011;26823;42.662;23.352;2022-07-29T04:01:52;12.85;;;11.57;;
41077;SDS011;26823;42.662;23.352;2022-07-29T04:04:20;15.35;;;11.02;;
41077;SDS011;26823;42.662;23.352;2022-07-29T04:06:47;17.80;;;13.23;;
41077;SDS011;26823;42.662;23.352;2022-07-29T04:09:12;17.40;;;12.63;;
41077;SDS011;26823;42.662;23.352;2022-07-29T04:11:38;14.43;;;12.35;;
41077;SDS011;26823;42.662;23.352;2022-07-29T04:14:04;13.45;;;11.52;;
41077;SDS011;26823;42.662;23.352;2022-07-29T04:16:30;12.95;;;11.27;;
41077;SDS011;26823;42.662;23.352;2022-07-29T04:18:56;22.80;;;14.35;;
41077;SDS011;26823;42.662;23.352;2022-07-29T04:21:21;14.25;;;11.13;;
41077;SDS011;26823;42.662;23.352;2022-07-29T04:23:47;12.05;;;10.52;;
41077;SDS011;26823;42.662;23.352;2022-07-29T04:26:15;13.00;;;11.68;;
41077;SDS011;26823;42.662;23.352;2022-07-29T04:28:43;12.25;;;11.05;;
41077;SDS011;26823;42.662;23.352;2022-07-29T04:31:09;11.05;;;9.90;;
41077;SDS011;26823;42.662;23.352;2022-07-29T04:33:35;12.25;;;10.95;;
41077;SDS011;26823;42.662;23.352;2022-07-29T04:36:00;12.38;;;9.77;;
41077;SDS011;26823;42.662;23.352;2022-07-29T04:38:27;13.55;;;9.23;;
41077;SDS011;26823;42.662;23.352;2022-07-29T04:40:52;9.85;;;8.90;;
41077;SDS011;26823;42.662;23.352;2022-07-29T04:43:18;11.27;;;8.70;;
41077;SDS011;26823;42.662;23.352;2022-07-29T04:45:43;9.25;;;7.85;;
41077;SDS011;26823;42.662;23.352;2022-07-29T04:48:09;8.93;;;8.05;;
41077;SDS011;26823;42.662;23.352;2022-07-29T04:50:39;9.95;;;7.22;;
41077;SDS011;26823;42.662;23.352;2022-07-29T04:53:05;10.77;;;7.95;;
41077;SDS011;26823;42.662;23.352;2022-07-29T04:55:32;8.30;;;7.00;;
41077;SDS011;26823;42.662;23.352;2022-07-29T04:57:57;9.50;;;7.53;;
41077;SDS011;26823;42.662;23.352;2022-07-29T05:00:23;8.98;;;7.65;;
41077;SDS011;26823;42.662;23.352;2022-07-29T05:02:48;7.75;;;6.60;;
41077;SDS011;26823;42.662;23.352;2022-07-29T05:05:14;11.63;;;7.72;;
41077;SDS011;26823;42.662;23.352;2022-07-29T05:07:39;8.35;;;7.55;;
41077;SDS011;26823;42.662;23.352;2022-07-29T05:10:05;7.68;;;6.88;;
41077;SDS011;26823;42.662;23.352;2022-07-29T05:12:31;11.38;;;7.35;;
41077;SDS011;26823;42.662;23.352;2022-07-29T05:14:57;12.75;;;8.45;;
41077;SDS011;26823;42.662;23.352;2022-07-29T05:17:22;9.63;;;7.55;;
41077;SDS011;26823;42.662;23.352;2022-07-29T05:19:48;7.93;;;7.00;;
41077;SDS011;26823;42.662;23.352;2022-07-29T05:22:15;8.60;;;7.70;;
41077;SDS011;26823;42.662;23.352;2022-07-29T05:24:40;8.85;;;7.95;;
41077;SDS011;26823;42.662;23.352;2022-07-29T05:27:06;7.53;;;6.78;;
41077;SDS011;26823;42.662;23.352;2022-07-29T05:29:31;9.00;;;7.32;;
41077;SDS011;26823;42.662;23.352;2022-07-29T05:31:57;8.43;;;7.53;;
41077;SDS011;26823;42.662;23.352;2022-07-29T05:34:22;12.18;;;7.85;;
41077;SDS011;26823;42.662;23.352;2022-07-29T05:36:48;10.43;;;7.50;;
41077;SDS011;26823;42.662;23.352;2022-07-29T05:39:14;10.93;;;8.32;;
41077;SDS011;26823;42.662;23.352;2022-07-29T05:41:39;9.43;;;8.48;;
41077;SDS011;26823;42.662;23.352;2022-07-29T05:44:05;11.32;;;8.43;;
41077;SDS011;26823;42.662;23.352;2022-07-29T05:46:30;10.88;;;7.95;;
41077;SDS011;26823;42.662;23.352;2022-07-29T05:48:55;10.65;;;7.10;;
41077;SDS011;26823;42.662;23.352;2022-07-29T05:51:21;10.38;;;7.68;;
41077;SDS011;26823;42.662;23.352;2022-07-29T05:53:46;7.28;;;6.57;;
41077;SDS011;26823;42.662;23.352;2022-07-29T05:56:12;10.85;;;7.43;;
41077;SDS011;26823;42.662;23.352;2022-07-29T05:58:37;8.07;;;6.93;;
41077;SDS011;26823;42.662;23.352;2022-07-29T06:01:02;11.63;;;7.57;;
41077;SDS011;26823;42.662;23.352;2022-07-29T06:03:28;11.48;;;8.45;;
41077;SDS011;26823;42.662;23.352;2022-07-29T06:05:53;10.35;;;8.45;;
41077;SDS011;26823;42.662;23.352;2022-07-29T06:08:19;10.27;;;8.10;;
41077;SDS011;26823;42.662;23.352;2022-07-29T06:10:45;12.45;;;8.38;;
41077;SDS011;26823;42.662;23.352;2022-07-29T06:13:11;11.70;;;7.45;;
41077;SDS011;26823;42.662;23.352;2022-07-29T06:15:37;8.95;;;7.57;;
41077;SDS011;26823;42.662;23.352;2022-07-29T06:18:02;11.95;;;6.90;;
41077;SDS011;26823;42.662;23.352;2022-07-29T06:20:28;13.48;;;7.50;;
41077;SDS011;26823;42.662;23.352;2022-07-29T06:22:55;9.45;;;7.60;;
41077;SDS011;26823;42.662;23.352;2022-07-29T06:25:21;9.85;;;7.45;;
41077;SDS011;26823;42.662;23.352;2022-07-29T06:27:46;8.32;;;6.75;;
41077;SDS011;26823;42.662;23.352;2022-07-29T06:30:12;10.32;;;6.68;;
41077;SDS011;26823;42.662;23.352;2022-07-29T06:32:37;9.43;;;6.80;;
41077;SDS011;26823;42.662;23.352;2022-07-29T06:35:03;9.85;;;6.85;;
41077;SDS011;26823;42.662;23.352;2022-07-29T06:37:28;9.00;;;5.97;;
41077;SDS011;26823;42.662;23.352;2022-07-29T06:39:54;6.60;;;5.57;;
41077;SDS011;26823;42.662;23.352;2022-07-29T06:42:41;14.82;;;7.03;;
41077;SDS011;26823;42.662;23.352;2022-07-29T06:45:07;7.40;;;6.40;;
41077;SDS011;26823;42.662;23.352;2022-07-29T06:47:33;7.15;;;6.55;;
41077;SDS011;26823;42.662;23.352;2022-07-29T06:49:59;8.15;;;7.05;;
41077;SDS011;26823;42.662;23.352;2022-07-29T06:52:24;6.75;;;6.15;;
41077;SDS011;26823;42.662;23.352;2022-07-29T06:54:50;7.55;;;6.80;;
41077;SDS011;26823;42.662;23.352;2022-07-29T06:57:16;7.55;;;6.75;;
41077;SDS011;26823;42.662;23.352;2022-07-29T06:59:41;8.00;;;6.00;;
41077;SDS011;26823;42.662;23.352;2022-07-29T07:02:06;7.65;;;6.30;;
41077;SDS011;26823;42.662;23.352;2022-07-29T07:04:32;10.02;;;6.18;;
41077;SDS011;26823;42.662;23.352;2022-07-29T07:06:58;10.02;;;6.18;;
41077;SDS011;26823;42.662;23.352;2022-07-29T07:09:24;6.78;;;5.78;;
41077;SDS011;26823;42.662;23.352;2022-07-29T07:11:50;5.95;;;5.45;;
41077;SDS011;26823;42.662;23.352;2022-07-29T07:14:15;9.75;;;5.88;;
41077;SDS011;26823;42.662;23.352;2022-07-29T07:16:41;11.15;;;6.15;;
41077;SDS011;26823;42.662;23.352;2022-07-29T07:19:06;5.75;;;5.10;;
41077;SDS011;26823;42.662;23.352;2022-07-29T07:21:32;7.80;;;6.07;;
41077;SDS011;26823;42.662;23.352;2022-07-29T07:23:58;6.20;;;5.20;;
41077;SDS011;26823;42.662;23.352;2022-07-29T07:26:24;7.03;;;5.20;;
41077;SDS011;26823;42.662;23.352;2022-07-29T07:28:50;6.80;;;5.25;;
41077;SDS011;26823;42.662;23.352;2022-07-29T07:31:15;8.73;;;5.18;;
41077;SDS011;26823;42.662;23.352;2022-07-29T07:33:41;7.38;;;5.00;;
41077;SDS011;26823;42.662;23.352;2022-07-29T07:36:06;7.50;;;4.68;;
41077;SDS011;26823;42.662;23.352;2022-07-29T07:38:32;6.47;;;4.13;;
41077;SDS011;26823;42.662;23.352;2022-07-29T07:40:57;7.50;;;4.35;;
41077;SDS011;26823;42.662;23.352;2022-07-29T07:43:23;6.68;;;3.95;;
41077;SDS011;26823;42.662;23.352;2022-07-29T07:45:49;4.55;;;3.97;;
41077;SDS011;26823;42.662;23.352;2022-07-29T07:48:14;5.07;;;4.15;;
41077;SDS011;26823;42.662;23.352;2022-07-29T07:50:39;5.22;;;4.70;;
41077;SDS011;26823;42.662;23.352;2022-07-29T07:53:05;5.93;;;4.60;;
41077;SDS011;26823;42.662;23.352;2022-07-29T07:55:30;7.95;;;4.85;;
41077;SDS011;26823;42.662;23.352;2022-07-29T07:57:56;7.82;;;4.93;;
41077;SDS011;26823;42.662;23.352;2022-07-29T08:00:21;6.00;;;4.47;;
41077;SDS011;26823;42.662;23.352;2022-07-29T08:02:47;5.60;;;4.43;;
41077;SDS011;26823;42.662;23.352;2022-07-29T08:05:12;5.20;;;3.72;;
41077;SDS011;26823;42.662;23.352;2022-07-29T08:07:42;5.05;;;4.55;;
41077;SDS011;26823;42.662;23.352;2022-07-29T08:10:08;5.03;;;4.47;;
41077;SDS011;26823;42.662;23.352;2022-07-29T08:12:34;7.93;;;4.03;;
41077;SDS011;26823;42.662;23.352;2022-07-29T08:14:59;4.80;;;3.90;;
41077;SDS011;26823;42.662;23.352;2022-07-29T08:17:25;3.67;;;3.38;;
41077;SDS011;26823;42.662;23.352;2022-07-29T08:19:51;5.30;;;4.07;;
41077;SDS011;26823;42.662;23.352;2022-07-29T08:22:17;5.80;;;3.88;;
41077;SDS011;26823;42.662;23.352;2022-07-29T08:24:42;4.65;;;3.33;;
41077;SDS011;26823;42.662;23.352;2022-07-29T08:27:08;3.55;;;3.25;;
41077;SDS011;26823;42.662;23.352;2022-07-29T08:29:35;4.63;;;2.97;;
41077;SDS011;26823;42.662;23.352;2022-07-29T08:32:01;6.28;;;3.28;;
41077;SDS011;26823;42.662;23.352;2022-07-29T08:34:26;4.63;;;3.50;;
41077;SDS011;26823;42.662;23.352;2022-07-29T08:36:53;4.97;;;3.55;;
41077;SDS011;26823;42.662;23.352;2022-07-29T08:39:19;4.70;;;3.83;;
41077;SDS011;26823;42.662;23.352;2022-07-29T08:41:44;4.35;;;3.10;;
41077;SDS011;26823;42.662;23.352;2022-07-29T08:44:10;3.50;;;2.95;;
41077;SDS011;26823;42.662;23.352;2022-07-29T08:46:37;5.10;;;3.20;;
41077;SDS011;26823;42.662;23.352;2022-07-29T08:49:04;4.40;;;3.00;;
41077;SDS011;26823;42.662;23.352;2022-07-29T08:51:30;3.90;;;2.78;;
41077;SDS011;26823;42.662;23.352;2022-07-29T08:53:57;4.75;;;2.67;;
41077;SDS011;26823;42.662;23.352;2022-07-29T08:56:23;3.90;;;3.08;;
41077;SDS011;26823;42.662;23.352;2022-07-29T08:58:49;3.85;;;2.80;;
41077;SDS011;26823;42.662;23.352;2022-07-29T09:01:16;5.50;;;3.38;;
41077;SDS011;26823;42.662;23.352;2022-07-29T09:03:43;3.55;;;2.90;;
41077;SDS011;26823;42.662;23.352;2022-07-29T09:06:14;3.45;;;3.17;;
41077;SDS011;26823;42.662;23.352;2022-07-29T09:08:42;3.75;;;3.28;;
41077;SDS011;26823;42.662;23.352;2022-07-29T09:11:07;3.45;;;2.97;;
41077;SDS011;26823;42.662;23.352;2022-07-29T09:13:33;2.90;;;2.70;;
41077;SDS011;26823;42.662;23.352;2022-07-29T09:15:59;4.75;;;3.20;;
41077;SDS011;26823;42.662;23.352;2022-07-29T09:18:35;4.32;;;2.88;;
41077;SDS011;26823;42.662;23.352;2022-07-29T09:21:02;3.50;;;3.20;;
41077;SDS011;26823;42.662;23.352;2022-07-29T09:26:34;5.00;;;3.60;;
41077;SDS011;26823;42.662;23.352;2022-07-29T09:29:07;3.70;;;3.10;;
41077;SDS011;26823;42.662;23.352;2022-07-29T09:31:38;5.22;;;3.78;;
41077;SDS011;26823;42.662;23.352;2022-07-29T09:34:05;5.63;;;3.28;;
41077;SDS011;26823;42.662;23.352;2022-07-29T09:36:38;3.58;;;3.28;;
41077;SDS011;26823;42.662;23.352;2022-07-29T09:39:05;7.75;;;3.70;;
41077;SDS011;26823;42.662;23.352;2022-07-29T09:41:43;5.90;;;3.67;;
41077;SDS011;26823;42.662;23.352;2022-07-29T09:44:10;5.25;;;4.00;;
41077;SDS011;26823;42.662;23.352;2022-07-29T09:46:35;3.95;;;3.65;;
41077;SDS011;26823;42.662;23.352;2022-07-29T09:49:11;6.35;;;3.30;;
41077;SDS011;26823;42.662;23.352;2022-07-29T09:51:38;4.43;;;3.22;;
41077;SDS011;26823;42.662;23.352;2022-07-29T09:56:52;4.93;;;3.70;;
41077;SDS011;26823;42.662;23.352;2022-07-29T09:59:18;3.28;;;2.97;;
41077;SDS011;26823;42.662;23.352;2022-07-29T10:01:45;4.93;;;3.72;;
41077;SDS011;26823;42.662;23.352;2022-07-29T10:04:11;6.80;;;4.10;;
41077;SDS011;26823;42.662;23.352;2022-07-29T10:06:45;5.10;;;3.80;;
41077;SDS011;26823;42.662;23.352;2022-07-29T10:09:21;4.25;;;3.95;;
41077;SDS011;26823;42.662;23.352;2022-07-29T10:14:40;5.50;;;3.83;;
41077;SDS011;26823;42.662;23.352;2022-07-29T10:17:06;4.22;;;3.83;;
41077;SDS011;26823;42.662;23.352;2022-07-29T10:19:33;4.90;;;3.45;;
41077;SDS011;26823;42.662;23.352;2022-07-29T10:22:00;4.68;;;3.50;;
41077;SDS011;26823;42.662;23.352;2022-07-29T10:24:28;3.80;;;3.45;;
41077;SDS011;26823;42.662;23.352;2022-07-29T10:26:55;3.95;;;3.55;;
41077;SDS011;26823;42.662;23.352;2022-07-29T10:29:22;3.95;;;3.20;;
41077;SDS011;26823;42.662;23.352;2022-07-29T10:37:33;3.97;;;3.67;;
41077;SDS011;26823;42.662;23.352;2022-07-29T10:42:58;3.85;;;3.30;;
41077;SDS011;26823;42.662;23.352;2022-07-29T10:45:34;3.58;;;3.08;;
41077;SDS011;26823;42.662;23.352;2022-07-29T10:48:03;6.65;;;3.42;;
41077;SDS011;26823;42.662;23.352;2022-07-29T10:53:22;5.57;;;3.78;;
41077;SDS011;26823;42.662;23.352;2022-07-29T10:55:48;5.35;;;3.20;;
41077;SDS011;26823;42.662;23.352;2022-07-29T10:58:20;7.30;;;3.40;;
41077;SDS011;26823;42.662;23.352;2022-07-29T11:00:49;7.43;;;3.13;;
41077;SDS011;26823;42.662;23.352;2022-07-29T11:06:07;3.50;;;3.20;;
41077;SDS011;26823;42.662;23.352;2022-07-29T11:08:33;3.40;;;3.20;;
41077;SDS011;26823;42.662;23.352;2022-07-29T11:13:52;3.28;;;2.97;;
41077;SDS011;26823;42.662;23.352;2022-07-29T11:16:20;4.78;;;3.70;;
41077;SDS011;26823;42.662;23.352;2022-07-29T11:21:44;4.53;;;3.00;;
41077;SDS011;26823;42.662;23.352;2022-07-29T11:24:15;6.13;;;3.60;;
41077;SDS011;26823;42.662;23.352;2022-07-29T11:26:42;4.65;;;3.08;;
41077;SDS011;26823;42.662;23.352;2022-07-29T11:29:16;3.80;;;2.88;;
41077;SDS011;26823;42.662;23.352;2022-07-29T11:31:43;4.35;;;3.45;;
41077;SDS011;26823;42.662;23.352;2022-07-29T11:34:23;4.55;;;3.30;;
41077;SDS011;26823;42.662;23.352;2022-07-29T11:39:31;3.33;;;3.13;;
41077;SDS011;26823;42.662;23.352;2022-07-29T11:44:54;3.60;;;3.30;;
41077;SDS011;26823;42.662;23.352;2022-07-29T11:47:27;4.07;;;3.47;;
41077;SDS011;26823;42.662;23.352;2022-07-29T11:49:55;3.53;;;3.22;;
41077;SDS011;26823;42.662;23.352;2022-07-29T11:52:22;4.35;;;3.70;;
41077;SDS011;26823;42.662;23.352;2022-07-29T11:54:48;4.47;;;4.10;;
41077;SDS011;26823;42.662;23.352;2022-07-29T11:57:16;4.93;;;3.85;;
41077;SDS011;26823;42.662;23.352;2022-07-29T11:59:43;5.25;;;4.13;;
41077;SDS011;26823;42.662;23.352;2022-07-29T12:02:10;3.95;;;3.63;;
41077;SDS011;26823;42.662;23.352;2022-07-29T12:04:49;6.30;;;4.10;;
41077;SDS011;26823;42.662;23.352;2022-07-29T12:07:18;4.18;;;3.78;;
41077;SDS011;26823;42.662;23.352;2022-07-29T12:09:50;4.40;;;4.05;;
41077;SDS011;26823;42.662;23.352;2022-07-29T12:12:16;4.78;;;3.97;;
41077;SDS011;26823;42.662;23.352;2022-07-29T12:14:42;4.32;;;3.97;;
41077;SDS011;26823;42.662;23.352;2022-07-29T12:17:23;4.45;;;4.05;;
41077;SDS011;26823;42.662;23.352;2022-07-29T12:19:52;4.63;;;4.20;;
41077;SDS011;26823;42.662;23.352;2022-07-29T12:22:28;7.82;;;3.83;;
41077;SDS011;26823;42.662;23.352;2022-07-29T12:25:00;4.28;;;3.70;;
41077;SDS011;26823;42.662;23.352;2022-07-29T12:27:28;4.10;;;3.80;;
41077;SDS011;26823;42.662;23.352;2022-07-29T12:29:57;4.55;;;3.83;;
41077;SDS011;26823;42.662;23.352;2022-07-29T12:32:38;4.55;;;4.25;;
41077;SDS011;26823;42.662;23.352;2022-07-29T12:35:09;6.57;;;4.25;;
41077;SDS011;26823;42.662;23.352;2022-07-29T12:37:37;5.97;;;4.40;;
41077;SDS011;26823;42.662;23.352;2022-07-29T12:40:04;5.75;;;4.53;;
41077;SDS011;26823;42.662;23.352;2022-07-29T12:42:31;5.03;;;4.57;;
41077;SDS011;26823;42.662;23.352;2022-07-29T12:44:57;4.05;;;3.75;;
41077;SDS011;26823;42.662;23.352;2022-07-29T12:47:22;6.25;;;4.20;;
41077;SDS011;26823;42.662;23.352;2022-07-29T12:49:48;5.00;;;4.50;;
41077;SDS011;26823;42.662;23.352;2022-07-29T12:54:49;5.32;;;4.70;;
41077;SDS011;26823;42.662;23.352;2022-07-29T12:57:15;5.00;;;4.55;;
41077;SDS011;26823;42.662;23.352;2022-07-29T12:59:40;5.57;;;4.55;;
41077;SDS011;26823;42.662;23.352;2022-07-29T13:02:06;6.03;;;4.25;;
41077;SDS011;26823;42.662;23.352;2022-07-29T13:04:32;5.32;;;4.80;;
41077;SDS011;26823;42.662;23.352;2022-07-29T13:07:04;4.90;;;4.50;;
41077;SDS011;26823;42.662;23.352;2022-07-29T13:09:44;5.03;;;4.63;;
41077;SDS011;26823;42.662;23.352;2022-07-29T13:12:13;5.32;;;4.82;;
41077;SDS011;26823;42.662;23.352;2022-07-29T13:14:40;4.72;;;4.32;;
41077;SDS011;26823;42.662;23.352;2022-07-29T13:17:07;6.72;;;4.85;;
41077;SDS011;26823;42.662;23.352;2022-07-29T13:22:09;6.70;;;5.03;;
41077;SDS011;26823;42.662;23.352;2022-07-29T13:24:47;4.95;;;4.22;;
41077;SDS011;26823;42.662;23.352;2022-07-29T13:27:17;7.57;;;4.20;;
41077;SDS011;26823;42.662;23.352;2022-07-29T13:29:43;4.95;;;4.47;;
41077;SDS011;26823;42.662;23.352;2022-07-29T13:32:09;4.75;;;4.45;;
41077;SDS011;26823;42.662;23.352;2022-07-29T13:34:34;4.95;;;4.25;;
41077;SDS011;26823;42.662;23.352;2022-07-29T13:37:00;4.65;;;4.15;;
41077;SDS011;26823;42.662;23.352;2022-07-29T13:39:25;8.23;;;5.25;;
41077;SDS011;26823;42.662;23.352;2022-07-29T13:41:51;4.65;;;4.25;;
41077;SDS011;26823;42.662;23.352;2022-07-29T13:44:16;7.32;;;4.60;;
41077;SDS011;26823;42.662;23.352;2022-07-29T13:46:41;7.53;;;4.90;;
41077;SDS011;26823;42.662;23.352;2022-07-29T13:49:07;4.57;;;4.18;;
41077;SDS011;26823;42.662;23.352;2022-07-29T13:51:32;6.05;;;4.57;;
41077;SDS011;26823;42.662;23.352;2022-07-29T13:53:58;4.70;;;4.30;;
41077;SDS011;26823;42.662;23.352;2022-07-29T13:56:23;5.10;;;4.40;;
41077;SDS011;26823;42.662;23.352;2022-07-29T13:58:48;5.63;;;4.40;;
41077;SDS011;26823;42.662;23.352;2022-07-29T14:01:14;4.82;;;4.43;;
41077;SDS011;26823;42.662;23.352;2022-07-29T14:03:40;5.18;;;4.28;;
41077;SDS011;26823;42.662;23.352;2022-07-29T14:06:08;5.15;;;4.65;;
41077;SDS011;26823;42.662;23.352;2022-07-29T14:08:33;5.40;;;4.43;;
41077;SDS011;26823;42.662;23.352;2022-07-29T14:10:59;7.55;;;5.22;;
41077;SDS011;26823;42.662;23.352;2022-07-29T14:13:24;4.82;;;4.32;;
41077;SDS011;26823;42.662;23.352;2022-07-29T14:15:49;8.20;;;5.22;;
41077;SDS011;26823;42.662;23.352;2022-07-29T14:18:15;4.95;;;4.38;;
41077;SDS011;26823;42.662;23.352;2022-07-29T14:20:40;4.28;;;3.90;;
41077;SDS011;26823;42.662;23.352;2022-07-29T14:23:05;5.00;;;4.38;;
41077;SDS011;26823;42.662;23.352;2022-07-29T14:25:31;4.45;;;4.05;;
41077;SDS011;26823;42.662;23.352;2022-07-29T14:27:56;5.57;;;4.65;;
41077;SDS011;26823;42.662;23.352;2022-07-29T14:30:22;5.40;;;4.90;;
41077;SDS011;26823;42.662;23.352;2022-07-29T14:32:47;6.53;;;4.40;;
41077;SDS011;26823;42.662;23.352;2022-07-29T14:35:13;4.60;;;4.20;;
41077;SDS011;26823;42.662;23.352;2022-07-29T14:37:38;7.95;;;4.88;;
41077;SDS011;26823;42.662;23.352;2022-07-29T14:40:04;4.97;;;4.32;;
41077;SDS011;26823;42.662;23.352;2022-07-29T14:42:30;7.03;;;4.38;;
41077;SDS011;26823;42.662;23.352;2022-07-29T14:44:58;5.10;;;4.60;;
41077;SDS011;26823;42.662;23.352;2022-07-29T14:47:24;4.93;;;4.53;;
41077;SDS011;26823;42.662;23.352;2022-07-29T14:49:49;4.72;;;4.32;;
41077;SDS011;26823;42.662;23.352;2022-07-29T14:52:15;6.32;;;4.65;;
41077;SDS011;26823;42.662;23.352;2022-07-29T14:54:40;5.88;;;4.95;;
41077;SDS011;26823;42.662;23.352;2022-07-29T14:57:06;4.78;;;4.40;;
41077;SDS011;26823;42.662;23.352;2022-07-29T14:59:31;5.85;;;4.20;;
41077;SDS011;26823;42.662;23.352;2022-07-29T15:01:57;5.80;;;4.50;;
41077;SDS011;26823;42.662;23.352;2022-07-29T15:24:33;6.78;;;4.75;;
41077;SDS011;26823;42.662;23.352;2022-07-29T15:26:59;5.32;;;4.85;;
41077;SDS011;26823;42.662;23.352;2022-07-29T15:29:24;5.68;;;4.95;;
41077;SDS011;26823;42.662;23.352;2022-07-29T15:31:50;5.15;;;4.75;;
41077;SDS011;26823;42.662;23.352;2022-07-29T15:34:15;6.20;;;4.60;;
41077;SDS011;26823;42.662;23.352;2022-07-29T15:36:41;4.70;;;4.38;;
41077;SDS011;26823;42.662;23.352;2022-07-29T15:39:06;4.80;;;4.40;;
41077;SDS011;26823;42.662;23.352;2022-07-29T15:41:32;5.30;;;4.65;;
41077;SDS011;26823;42.662;23.352;2022-07-29T15:43:58;5.38;;;4.35;;
41077;SDS011;26823;42.662;23.352;2022-07-29T15:46:24;5.78;;;4.82;;